LMML/MLA METAR and TAF weather

Enter ICAO airport designator
Station Type Date Time Source
LMML METAR 2019/08/25 07:45 UTC NOAA

LMML 250745Z VRB02KT CAVOK 30/18 Q1016 NOSIG


Station Type Date Time Source
LMML Decoded METAR 2019/08/25 07:45 UTC NOAA

Station name not available
Aug 25, 2019 - 03:45 AM EDT / 2019.08.25 0745 UTC
Wind: Variable at 2 MPH (2 KT):0
Visibility: greater than 7 mile(s):0
Temperature: 86 F (30 C)
Dew Point: 64 F (18 C)
Relative Humidity: 48%
Pressure (altimeter): 30.00 in. Hg (1016 hPa)
ob: LMML 250745Z VRB02KT CAVOK 30/18 Q1016 NOSIG
cycle: 8

Station Type Date Time Source
LMML TAF 2019/08/25 06:42 UTC NOAA

TAF TAF LMML 250500Z 2506/2606 34005KT 9999 FEW035

Example: see airport list